• Join FlightAware (Why Join?)
  • Login
  • US Flag 
01:22AM EST


 

Airport Tracker/Info


-or-


 

Live Flight TrackerFlight Track Log ✈ UAL4788 ✈ 30-Apr-2013 ✈ KFNT - KCLE

Flight Track Log - Related Links

Times and Time Zones

All times are in EDT time to prevent confusion due to time zone crossing. See the UAL4788 flight status page for this flight to view local times or setup timezone preferences in your user account.

Time Position Orientation Groundspeed Altitude Reporting Facility
EDT Latitude Longitude Course Direction KTS MPH feet Rate Location/Type
05:59AM 42.9394 -83.6831 100° East 195 224 2,500  Level Cleveland Center
05:59AM 42.9475 -83.6239 79° East 209 241 3,300 1,020 Climbing Cleveland Center
06:00AM 42.9411 -83.5469 96° East 193 222 4,400 900 Climbing Cleveland Center
06:02AM 42.9114 -83.4861 124° Southeast 215 247 5,200 840 Climbing Cleveland Center
06:03AM 42.8756 -83.4164 125° Southeast 218 251 6,100 840 Climbing Cleveland Center
06:04AM 42.7029 -83.4156 100° East  Level Estimated
06:04AM 42.8375 -83.3467 127° Southeast 224 258 6,900  Level Cleveland Center
06:04AM 42.8058 -83.2831 124° Southeast 256 295 7,000  Climbing Cleveland Center
06:05AM 42.7531 -83.2186 138° Southeast 263 303 7,000  Level Cleveland Center
06:06AM 42.6942 -83.1567 142° Southeast 263 303 7,000  Level Cleveland Center
06:07AM 42.6372 -83.0922 140° Southeast 268 308 7,000  Level Cleveland Center
06:08AM 42.5842 -83.0308 140° Southeast 268 308 7,000  Level Cleveland Center
06:09AM 42.5292 -82.9667 139° Southeast 263 303 7,000  Level Cleveland Center
06:10AM 42.4764 -82.9058 140° Southeast 263 303 7,000  Level Cleveland Center
06:11AM 42.4214 -82.8444 141° Southeast 258 297 7,000  Level Cleveland Center
06:12AM 42.3661 -82.7836 141° Southeast 258 297 7,000  Level Cleveland Center
06:13AM 42.3131 -82.7228 140° Southeast 253 291 7,000  Level Cleveland Center
06:14AM 42.2600 -82.6619 140° Southeast 253 291 7,000  Level Cleveland Center
06:15AM 42.2069 -82.6014 140° Southeast 253 291 7,000  Level Cleveland Center
06:17AM 42.1372 -82.5264 141° Southeast 253 291 7,000  Level Cleveland Center
06:17AM 42.0922 -82.4803 143° Southeast 251 289 7,000  Level Cleveland Center
06:18AM 42.0369 -82.4172 140° Southeast 251 289 7,000  Level Cleveland Center
06:19AM 41.9900 -82.3628 139° Southeast 253 291 7,000  Level Cleveland Center
06:20AM 41.9367 -82.3025 140° Southeast 253 291 7,000  Level Cleveland Center
06:21AM 41.8833 -82.2453 141° Southeast 253 291 7,000  Level Cleveland Center
06:22AM 41.8278 -82.1911 144° Southeast 253 291 7,000  Level Cleveland Center
06:23AM 41.7700 -82.1450 149° Southeast 248 285 7,000  Level Cleveland Center
06:24AM 41.7494 -82.1278 148° Southeast 247 284 7,000  Level Cleveland Center
06:24AM 41.7039 -82.0933 151° Southeast 243 280 7,000  Level Cleveland Center
06:25AM 41.6894 -82.0847 156° South 247 284 7,000  Level Cleveland Center
06:25AM 41.6442 -82.0475 148° Southeast 243 280 7,000  Level Cleveland Center
06:26AM 41.6275 -82.0389 159° South 246 283 7,000 -1,140 Level Cleveland Center
06:26AM 41.6056 -81.9717 114° Southeast 243 280 5,900 -1,500 Descending Cleveland Center
06:28AM 41.5775 -81.8767 112° Southeast 257 296 4,300 -960 Descending Cleveland Center
06:29AM 41.5825 -81.7933 85° East 214 246 4,000 -180 Descending Cleveland Center
06:29AM 41.5539 -81.7458 129° Southeast 193 222 4,000 -420 Level Cleveland Center
06:30AM 41.5019 -81.7225 161° South 188 216 3,300 -900 Descending Cleveland Center
06:31AM 41.4639 -81.7719 224° Southwest 189 217 2,300 -840 Descending Cleveland Center
06:32AM 41.4428 -81.8075 232° Southwest 135 155 1,700 -660 Descending Cleveland Center
06:34AM 41.4000 -81.8500 143° Southeast  Level FlightAware Approximate
06:41AM 41.4094 -81.8547 143° Southeast  Level Estimated
06:42AM 41.4094 -81.8547 143° Southeast  Level Estimated